Time;durP1;ratioP1;P1;durP2;ratioP2;P2;SDS_P1;SDS_P2;PMS_P1;PMS_P2;Temp;Humidity;BMP_temperature;BMP_pressure;BME280_temperature;BME280_humidity;BME280_pressure;Samples;Min_cycle;Max_cycle;Signal;HPM_P1;HPM_P2
2022/08/03 00:00:53;;;;;;;2.85;1.80;;;16.50;99.40;;;;;;5033383;28;20174;-72
2022/08/03 00:03:19;;;;;;;2.53;2.28;;;16.40;99.90;;;;;;5031960;28;20179;-72
2022/08/03 00:05:44;;;;;;;2.65;2.10;;;16.40;99.90;;;;;;5032836;28;20175;-72
2022/08/03 00:08:10;;;;;;;3.83;2.28;;;16.40;99.90;;;;;;5033119;28;20198;-72
2022/08/03 00:10:36;;;;;;;3.67;2.10;;;16.30;99.90;;;;;;5031954;28;20186;-72
2022/08/03 00:13:03;;;;;;;4.53;2.33;;;16.40;99.90;;;;;;5031813;28;20277;-72
2022/08/03 00:15:28;;;;;;;3.17;2.00;;;16.30;99.90;;;;;;5031850;28;20171;-72
2022/08/03 00:17:54;;;;;;;2.97;2.00;;;16.30;99.90;;;;;;5031866;28;20201;-72
2022/08/03 00:20:20;;;;;;;3.85;2.25;;;16.30;99.90;;;;;;5032685;28;20203;-72
2022/08/03 00:22:46;;;;;;;4.00;2.13;;;16.30;99.90;;;;;;5032210;28;20541;-72
2022/08/03 00:25:12;;;;;;;6.43;2.63;;;16.20;99.90;;;;;;5033414;28;20205;-72
2022/08/03 00:27:38;;;;;;;2.13;1.90;;;16.20;99.90;;;;;;5033229;28;20265;-72
2022/08/03 00:30:04;;;;;;;3.58;2.20;;;16.20;99.90;;;;;;5032147;28;20178;-72
2022/08/03 00:32:30;;;;;;;3.15;2.10;;;16.20;99.90;;;;;;5031762;28;20183;-72
2022/08/03 00:34:55;;;;;;;2.10;2.00;;;16.10;99.90;;;;;;5031788;28;20207;-72
2022/08/03 00:37:21;;;;;;;2.30;2.20;;;16.10;99.90;;;;;;5031822;28;20604;-72
2022/08/03 00:39:46;;;;;;;2.45;2.25;;;16.10;99.90;;;;;;5032989;28;20664;-72
2022/08/03 00:42:13;;;;;;;2.40;2.30;;;16.10;99.90;;;;;;5032884;28;20175;-72
2022/08/03 00:44:40;;;;;;;2.33;2.13;;;16.10;99.90;;;;;;5031648;28;20233;-72
2022/08/03 00:47:06;;;;;;;2.83;2.38;;;16.10;99.90;;;;;;5032030;28;20245;-72
2022/08/03 00:49:32;;;;;;;3.30;2.55;;;16.10;99.90;;;;;;5033619;28;20218;-72
2022/08/03 00:51:59;;;;;;;2.40;2.30;;;16.10;99.90;;;;;;5031637;28;20205;-72
2022/08/03 00:54:25;;;;;;;3.13;2.20;;;16.10;99.90;;;;;;5032212;28;20199;-72
2022/08/03 00:56:51;;;;;;;3.53;2.20;;;16.00;99.90;;;;;;5031597;28;20264;-72
2022/08/03 00:59:17;;;;;;;3.15;2.28;;;15.90;99.90;;;;;;5033197;28;20182;-72
2022/08/03 01:01:43;;;;;;;3.10;2.47;;;15.70;99.90;;;;;;5036637;28;20175;-72
2022/08/03 01:04:08;;;;;;;2.28;2.15;;;15.70;99.90;;;;;;5035429;28;20179;-72
2022/08/03 01:07:13;;;;;;;3.50;2.33;;;15.70;99.90;;;;;;5035367;28;20572;-72
2022/08/03 01:10:04;;;;;;;2.17;2.08;;;15.70;99.90;;;;;;5005471;28;20186;-72
2022/08/03 01:12:47;;;;;;;2.70;2.47;;;15.80;99.90;;;;;;5036148;28;20171;-72
2022/08/03 01:15:45;;;;;;;3.15;2.33;;;15.70;99.90;;;;;;5035604;28;20202;-72
2022/08/03 01:18:23;;;;;;;3.00;2.45;;;15.70;99.90;;;;;;5035344;28;20690;-72
2022/08/03 01:20:54;;;;;;;3.72;2.33;;;15.70;99.90;;;;;;5034808;28;20189;-72
2022/08/03 01:23:36;;;;;;;4.70;2.30;;;15.60;99.90;;;;;;5035904;28;20182;-72
2022/08/03 01:26:32;;;;;;;2.35;2.20;;;15.40;99.90;;;;;;5034588;28;20193;-72
2022/08/03 01:29:41;;;;;;;3.22;2.47;;;15.60;99.90;;;;;;5035623;28;20167;-72
2022/08/03 01:32:19;;;;;;;3.72;2.50;;;15.50;99.90;;;;;;5035600;28;20193;-72
2022/08/03 01:34:58;;;;;;;2.60;2.40;;;15.60;99.90;;;;;;5035841;28;20226;-72
2022/08/03 01:37:38;;;;;;;2.83;2.58;;;15.50;99.90;;;;;;5035284;28;20191;-72
2022/08/03 01:40:05;;;;;;;2.35;2.25;;;15.40;99.90;;;;;;5034935;28;20217;-72
2022/08/03 01:42:32;;;;;;;2.70;2.50;;;15.40;99.90;;;;;;5034957;28;20179;-72
2022/08/03 01:44:59;;;;;;;2.20;2.10;;;15.40;99.90;;;;;;5034485;28;20222;-72
2022/08/03 01:47:27;;;;;;;2.60;2.40;;;15.20;99.90;;;;;;5035068;28;20199;-72
2022/08/03 01:49:55;;;;;;;2.70;2.50;;;14.90;99.90;;;;;;5035118;28;20183;-72
2022/08/03 01:52:21;;;;;;;2.70;2.50;;;14.90;99.90;;;;;;5035152;28;20185;-72
2022/08/03 01:54:50;;;;;;;2.53;2.40;;;15.00;99.90;;;;;;5034451;28;20206;-72
2022/08/03 01:57:17;;;;;;;2.45;2.35;;;15.00;99.90;;;;;;5035370;28;20195;-72
2022/08/03 01:59:44;;;;;;;2.83;2.40;;;15.00;99.90;;;;;;5034949;28;20178;-72
2022/08/03 02:02:13;;;;;;;4.05;2.60;;;14.90;99.90;;;;;;5034858;28;20226;-72
2022/08/03 02:04:41;;;;;;;4.05;2.47;;;14.90;99.90;;;;;;5034910;28;20175;-72
2022/08/03 02:07:08;;;;;;;2.60;2.40;;;14.90;99.90;;;;;;5035396;28;20206;-72
2022/08/03 02:09:35;;;;;;;2.55;2.40;;;14.90;99.90;;;;;;5035305;28;20642;-72
2022/08/03 02:12:02;;;;;;;2.55;2.20;;;15.10;99.90;;;;;;5034282;28;20239;-72
2022/08/03 02:14:29;;;;;;;4.90;2.53;;;15.10;99.90;;;;;;5035436;28;20187;-72
2022/08/03 02:16:57;;;;;;;2.78;2.50;;;15.10;99.90;;;;;;5034390;28;20199;-72
2022/08/03 02:19:25;;;;;;;2.60;2.28;;;15.10;99.90;;;;;;5034242;28;20242;-72
2022/08/03 02:21:52;;;;;;;2.30;2.10;;;15.20;99.90;;;;;;5033903;28;20638;-72
2022/08/03 02:24:18;;;;;;;3.35;2.63;;;15.20;99.90;;;;;;5033845;28;20566;-72
2022/08/03 02:26:45;;;;;;;3.28;2.40;;;15.20;99.90;;;;;;5034095;28;20198;-72
2022/08/03 02:29:18;;;;;;;2.40;2.20;;;15.00;99.90;;;;;;5034189;28;20178;-72
2022/08/03 02:31:45;;;;;;;2.95;2.35;;;15.10;99.90;;;;;;5034551;28;20636;-72
2022/08/03 02:34:14;;;;;;;2.90;2.70;;;15.10;99.90;;;;;;5035651;28;20195;-72
2022/08/03 02:36:43;;;;;;;2.60;2.40;;;15.00;99.90;;;;;;5033803;28;20226;-72
2022/08/03 02:39:12;;;;;;;3.25;2.25;;;14.90;99.90;;;;;;5033658;28;20658;-72
2022/08/03 02:41:47;;;;;;;3.45;2.17;;;14.80;99.90;;;;;;5034589;28;20186;-72
2022/08/03 02:44:15;;;;;;;2.75;2.30;;;14.90;99.90;;;;;;5035036;28;20163;-72
2022/08/03 02:46:44;;;;;;;2.20;2.10;;;14.90;99.90;;;;;;5033674;28;20217;-72
2022/08/03 02:49:13;;;;;;;4.13;2.35;;;15.00;99.90;;;;;;5034151;28;20179;-72
2022/08/03 02:51:39;;;;;;;2.67;2.50;;;15.00;99.90;;;;;;5034262;28;20183;-72
2022/08/03 02:54:07;;;;;;;2.65;2.45;;;14.90;99.90;;;;;;5034111;28;20261;-72
2022/08/03 02:56:33;;;;;;;3.38;2.50;;;14.80;99.90;;;;;;5034823;28;20257;-72
2022/08/03 02:59:00;;;;;;;2.88;2.70;;;14.70;99.90;;;;;;5035233;28;20179;-72
2022/08/03 03:01:27;;;;;;;2.85;2.22;;;14.60;99.90;;;;;;5035645;28;20167;-72
2022/08/03 03:03:56;;;;;;;2.60;2.40;;;14.60;99.90;;;;;;5035012;28;20642;-72
2022/08/03 03:06:23;;;;;;;4.30;2.40;;;14.60;99.90;;;;;;5034798;28;20225;-72
2022/08/03 03:08:51;;;;;;;2.30;2.20;;;14.60;99.90;;;;;;5035047;28;20258;-72
2022/08/03 03:11:19;;;;;;;3.20;2.70;;;14.60;99.90;;;;;;5035933;28;20179;-72
2022/08/03 03:13:46;;;;;;;4.97;2.47;;;14.50;99.90;;;;;;5033626;28;20262;-72
2022/08/03 03:16:12;;;;;;;2.53;2.33;;;14.50;99.90;;;;;;5034511;28;20195;-72
2022/08/03 03:18:39;;;;;;;2.90;2.70;;;14.60;99.90;;;;;;5033355;28;20224;-72
2022/08/03 03:21:08;;;;;;;2.53;2.42;;;14.60;99.90;;;;;;5033410;28;20179;-72
2022/08/03 03:23:37;;;;;;;3.97;2.53;;;14.60;99.90;;;;;;5034514;28;20269;-72
2022/08/03 03:26:04;;;;;;;5.32;2.92;;;14.50;99.90;;;;;;5033538;28;20194;-72
2022/08/03 03:28:38;;;;;;;4.32;2.95;;;14.50;99.90;;;;;;5036260;28;20183;-72
2022/08/03 03:31:08;;;;;;;3.00;2.80;;;14.40;99.90;;;;;;5034877;28;20552;-72
2022/08/03 03:33:34;;;;;;;4.85;3.20;;;14.40;99.90;;;;;;5033895;28;20225;-72
2022/08/03 03:36:00;;;;;;;3.80;2.70;;;14.40;99.90;;;;;;5035152;28;20225;-72
2022/08/03 03:38:25;;;;;;;6.05;3.00;;;14.50;99.90;;;;;;5033512;28;20171;-72
